sensor_id;sensor_type;location;lat;lon;timestamp;pressure;altitude;pressure_sealevel;temperature;humidity
10115;BME280;5097;43.260;27.812;2023-06-04T00:02:02;100280.16;;;18.91;100.00
10115;BME280;5097;43.260;27.812;2023-06-04T00:04:46;100277.94;;;18.96;100.00
10115;BME280;5097;43.260;27.812;2023-06-04T00:07:30;100271.59;;;18.76;100.00
10115;BME280;5097;43.260;27.812;2023-06-04T00:10:14;100276.94;;;18.76;100.00
10115;BME280;5097;43.260;27.812;2023-06-04T00:13:00;100287.06;;;18.72;100.00
10115;BME280;5097;43.260;27.812;2023-06-04T00:15:44;100271.25;;;18.69;100.00
10115;BME280;5097;43.260;27.812;2023-06-04T00:18:28;100284.59;;;18.59;100.00
10115;BME280;5097;43.260;27.812;2023-06-04T00:21:11;100279.38;;;18.58;100.00
10115;BME280;5097;43.260;27.812;2023-06-04T00:23:55;100284.72;;;18.58;100.00
10115;BME280;5097;43.260;27.812;2023-06-04T00:26:39;100288.88;;;18.51;100.00
10115;BME280;5097;43.260;27.812;2023-06-04T00:29:25;100290.44;;;18.53;100.00
10115;BME280;5097;43.260;27.812;2023-06-04T00:32:09;100286.94;;;18.53;100.00
10115;BME280;5097;43.260;27.812;2023-06-04T00:34:54;100283.97;;;18.56;100.00
10115;BME280;5097;43.260;27.812;2023-06-04T00:37:40;100272.88;;;18.39;100.00
10115;BME280;5097;43.260;27.812;2023-06-04T00:40:24;100252.97;;;18.32;100.00
10115;BME280;5097;43.260;27.812;2023-06-04T00:43:08;100287.44;;;18.47;100.00
10115;BME280;5097;43.260;27.812;2023-06-04T00:45:54;100298.41;;;18.43;100.00
10115;BME280;5097;43.260;27.812;2023-06-04T00:48:38;100309.75;;;18.57;100.00
10115;BME280;5097;43.260;27.812;2023-06-04T00:51:25;100277.03;;;18.32;100.00
10115;BME280;5097;43.260;27.812;2023-06-04T00:54:09;100313.69;;;18.53;100.00
10115;BME280;5097;43.260;27.812;2023-06-04T00:56:54;100274.22;;;18.13;100.00
10115;BME280;5097;43.260;27.812;2023-06-04T00:59:38;100289.16;;;18.36;100.00
10115;BME280;5097;43.260;27.812;2023-06-04T01:02:26;100311.91;;;18.42;100.00
10115;BME280;5097;43.260;27.812;2023-06-04T01:05:16;100314.44;;;18.43;100.00
10115;BME280;5097;43.260;27.812;2023-06-04T01:08:04;100298.13;;;18.47;100.00
10115;BME280;5097;43.260;27.812;2023-06-04T01:10:51;100323.19;;;18.46;100.00
10115;BME280;5097;43.260;27.812;2023-06-04T01:13:35;100300.59;;;18.38;100.00
10115;BME280;5097;43.260;27.812;2023-06-04T01:16:19;100321.63;;;18.64;100.00
10115;BME280;5097;43.260;27.812;2023-06-04T01:19:11;100316.88;;;18.68;100.00
10115;BME280;5097;43.260;27.812;2023-06-04T01:22:10;100322.06;;;18.48;100.00
10115;BME280;5097;43.260;27.812;2023-06-04T01:25:05;100311.91;;;18.42;100.00
10115;BME280;5097;43.260;27.812;2023-06-04T01:27:55;100317.22;;;18.09;100.00
10115;BME280;5097;43.260;27.812;2023-06-04T01:30:41;100322.88;;;17.95;100.00
10115;BME280;5097;43.260;27.812;2023-06-04T01:33:28;100322.84;;;17.72;100.00
10115;BME280;5097;43.260;27.812;2023-06-04T01:36:14;100322.00;;;17.61;100.00
10115;BME280;5097;43.260;27.812;2023-06-04T01:38:58;100307.19;;;17.45;100.00
10115;BME280;5097;43.260;27.812;2023-06-04T01:41:43;100321.88;;;17.73;99.13
10115;BME280;5097;43.260;27.812;2023-06-04T01:44:28;100331.00;;;17.59;99.34
10115;BME280;5097;43.260;27.812;2023-06-04T01:47:12;100321.91;;;17.51;100.00
10115;BME280;5097;43.260;27.812;2023-06-04T01:49:56;100331.59;;;17.40;99.71
10115;BME280;5097;43.260;27.812;2023-06-04T01:52:41;100334.97;;;17.20;99.30
10115;BME280;5097;43.260;27.812;2023-06-04T01:55:26;100343.97;;;17.30;98.65
10115;BME280;5097;43.260;27.812;2023-06-04T01:58:12;100349.69;;;17.25;97.81
10115;BME280;5097;43.260;27.812;2023-06-04T02:00:59;100318.81;;;17.10;98.01
10115;BME280;5097;43.260;27.812;2023-06-04T02:03:46;100347.59;;;17.18;97.85
10115;BME280;5097;43.260;27.812;2023-06-04T02:06:30;100347.94;;;17.13;98.19
10115;BME280;5097;43.260;27.812;2023-06-04T02:09:15;100340.09;;;17.23;96.73
10115;BME280;5097;43.260;27.812;2023-06-04T02:11:59;100351.00;;;17.31;96.72
10115;BME280;5097;43.260;27.812;2023-06-04T02:14:43;100351.50;;;17.36;95.98
10115;BME280;5097;43.260;27.812;2023-06-04T02:17:29;100358.41;;;17.28;96.39
10115;BME280;5097;43.260;27.812;2023-06-04T02:20:14;100362.03;;;17.26;96.13
10115;BME280;5097;43.260;27.812;2023-06-04T02:22:59;100362.03;;;17.26;95.96
10115;BME280;5097;43.260;27.812;2023-06-04T02:25:44;100369.66;;;17.08;96.57
10115;BME280;5097;43.260;27.812;2023-06-04T02:28:28;100374.63;;;17.02;96.08
10115;BME280;5097;43.260;27.812;2023-06-04T02:31:12;100367.75;;;17.11;95.60
10115;BME280;5097;43.260;27.812;2023-06-04T02:33:56;100381.34;;;17.30;94.76
10115;BME280;5097;43.260;27.812;2023-06-04T02:36:40;100378.69;;;17.30;94.47
10115;BME280;5097;43.260;27.812;2023-06-04T02:39:30;100377.41;;;17.00;95.19
10115;BME280;5097;43.260;27.812;2023-06-04T02:42:16;100396.09;;;17.00;95.08
10115;BME280;5097;43.260;27.812;2023-06-04T02:45:00;100396.34;;;17.08;94.10
10115;BME280;5097;43.260;27.812;2023-06-04T02:47:46;100395.78;;;17.16;94.11
10115;BME280;5097;43.260;27.812;2023-06-04T02:50:30;100388.72;;;17.26;93.43
10115;BME280;5097;43.260;27.812;2023-06-04T02:53:14;100400.16;;;17.29;93.23
10115;BME280;5097;43.260;27.812;2023-06-04T02:55:58;100374.16;;;17.19;92.60
10115;BME280;5097;43.260;27.812;2023-06-04T02:58:50;100405.00;;;17.23;92.25
10115;BME280;5097;43.260;27.812;2023-06-04T03:01:35;100397.09;;;17.11;93.22
10115;BME280;5097;43.260;27.812;2023-06-04T03:04:19;100387.91;;;17.26;92.62
10115;BME280;5097;43.260;27.812;2023-06-04T03:07:04;100380.78;;;17.02;93.07
10115;BME280;5097;43.260;27.812;2023-06-04T03:09:50;100393.34;;;16.89;92.87
10115;BME280;5097;43.260;27.812;2023-06-04T03:12:34;100412.00;;;16.89;92.50
10115;BME280;5097;43.260;27.812;2023-06-04T03:15:20;100410.50;;;16.98;92.48
10115;BME280;5097;43.260;27.812;2023-06-04T03:18:04;100405.22;;;16.85;92.38
10115;BME280;5097;43.260;27.812;2023-06-04T03:20:49;100380.94;;;16.76;91.74
10115;BME280;5097;43.260;27.812;2023-06-04T03:23:35;100379.41;;;16.85;91.47
10115;BME280;5097;43.260;27.812;2023-06-04T03:26:21;100420.41;;;17.20;90.42
10115;BME280;5097;43.260;27.812;2023-06-04T03:29:05;100433.34;;;17.13;90.03
10115;BME280;5097;43.260;27.812;2023-06-04T03:31:52;100417.25;;;17.26;89.34
10115;BME280;5097;43.260;27.812;2023-06-04T03:34:36;100423.78;;;17.11;89.70
10115;BME280;5097;43.260;27.812;2023-06-04T03:37:20;100402.66;;;17.07;89.42
10115;BME280;5097;43.260;27.812;2023-06-04T03:40:06;100422.59;;;17.15;89.15
10115;BME280;5097;43.260;27.812;2023-06-04T03:42:53;100428.25;;;17.57;87.91
10115;BME280;5097;43.260;27.812;2023-06-04T03:45:41;100422.28;;;17.53;86.79
10115;BME280;5097;43.260;27.812;2023-06-04T03:48:27;100440.75;;;17.68;85.93
10115;BME280;5097;43.260;27.812;2023-06-04T03:51:12;100423.03;;;17.67;85.54
10115;BME280;5097;43.260;27.812;2023-06-04T03:53:57;100426.06;;;17.73;85.73
10115;BME280;5097;43.260;27.812;2023-06-04T03:56:41;100327.94;;;17.30;84.65
10115;BME280;5097;43.260;27.812;2023-06-04T03:59:26;100447.44;;;17.62;86.42
10115;BME280;5097;43.260;27.812;2023-06-04T04:02:10;100438.94;;;17.80;84.82
10115;BME280;5097;43.260;27.812;2023-06-04T04:04:56;100435.31;;;17.81;85.13
10115;BME280;5097;43.260;27.812;2023-06-04T04:07:40;100419.75;;;17.63;84.78
10115;BME280;5097;43.260;27.812;2023-06-04T04:10:25;100444.81;;;18.07;84.11
10115;BME280;5097;43.260;27.812;2023-06-04T04:13:09;100425.25;;;18.18;82.71
10115;BME280;5097;43.260;27.812;2023-06-04T04:15:55;100456.97;;;18.00;83.52
10115;BME280;5097;43.260;27.812;2023-06-04T04:18:41;100456.75;;;18.03;83.58
10115;BME280;5097;43.260;27.812;2023-06-04T04:21:27;100444.19;;;17.70;85.01
10115;BME280;5097;43.260;27.812;2023-06-04T04:24:22;100460.84;;;18.19;83.55
10115;BME280;5097;43.260;27.812;2023-06-04T04:27:07;100461.88;;;18.62;81.05
10115;BME280;5097;43.260;27.812;2023-06-04T04:29:54;100471.47;;;18.75;81.28
10115;BME280;5097;43.260;27.812;2023-06-04T04:32:47;100463.13;;;18.35;81.51
10115;BME280;5097;43.260;27.812;2023-06-04T04:35:39;100452.44;;;18.46;81.90
10115;BME280;5097;43.260;27.812;2023-06-04T04:38:26;100463.75;;;18.38;81.33
10115;BME280;5097;43.260;27.812;2023-06-04T04:41:16;100470.03;;;18.60;80.75
10115;BME280;5097;43.260;27.812;2023-06-04T04:44:03;100470.44;;;18.44;81.11
10115;BME280;5097;43.260;27.812;2023-06-04T04:46:48;100466.78;;;18.45;81.03
10115;BME280;5097;43.260;27.812;2023-06-04T04:49:33;100476.41;;;18.25;81.74
10115;BME280;5097;43.260;27.812;2023-06-04T04:52:17;100472.63;;;18.39;80.28
10115;BME280;5097;43.260;27.812;2023-06-04T04:55:04;100450.81;;;18.55;80.12
10115;BME280;5097;43.260;27.812;2023-06-04T04:57:49;100479.91;;;18.48;80.11
10115;BME280;5097;43.260;27.812;2023-06-04T05:00:34;100471.81;;;18.71;79.57
10115;BME280;5097;43.260;27.812;2023-06-04T05:03:18;100473.44;;;18.62;79.38
10115;BME280;5097;43.260;27.812;2023-06-04T05:06:02;100444.16;;;18.61;79.44
10115;BME280;5097;43.260;27.812;2023-06-04T05:08:47;100440.78;;;18.80;77.23
10115;BME280;5097;43.260;27.812;2023-06-04T05:11:34;100487.53;;;18.64;79.00
10115;BME280;5097;43.260;27.812;2023-06-04T05:14:19;100478.03;;;18.71;78.50
10115;BME280;5097;43.260;27.812;2023-06-04T05:17:04;100464.72;;;18.37;79.48
10115;BME280;5097;43.260;27.812;2023-06-04T05:19:50;100482.47;;;19.26;77.96
10115;BME280;5097;43.260;27.812;2023-06-04T05:22:35;100490.78;;;19.23;77.42
10115;BME280;5097;43.260;27.812;2023-06-04T05:25:20;100480.91;;;19.23;76.33
10115;BME280;5097;43.260;27.812;2023-06-04T05:28:06;100483.69;;;19.33;76.12
10115;BME280;5097;43.260;27.812;2023-06-04T05:30:50;100490.97;;;19.31;75.76
10115;BME280;5097;43.260;27.812;2023-06-04T05:33:35;100499.38;;;19.05;77.25
10115;BME280;5097;43.260;27.812;2023-06-04T05:36:24;100519.00;;;18.83;77.14
10115;BME280;5097;43.260;27.812;2023-06-04T05:39:12;100486.69;;;18.52;77.92
10115;BME280;5097;43.260;27.812;2023-06-04T05:42:09;100508.94;;;18.64;77.67
10115;BME280;5097;43.260;27.812;2023-06-04T05:44:55;100507.56;;;18.92;77.28
10115;BME280;5097;43.260;27.812;2023-06-04T05:47:40;100470.75;;;19.06;76.62
10115;BME280;5097;43.260;27.812;2023-06-04T05:50:24;100518.75;;;19.51;75.16
10115;BME280;5097;43.260;27.812;2023-06-04T05:53:08;100509.56;;;19.65;73.46
10115;BME280;5097;43.260;27.812;2023-06-04T05:55:52;100514.78;;;19.46;74.01
10115;BME280;5097;43.260;27.812;2023-06-04T05:58:37;100510.81;;;20.13;72.13
10115;BME280;5097;43.260;27.812;2023-06-04T06:01:23;100517.03;;;19.83;72.18
10115;BME280;5097;43.260;27.812;2023-06-04T06:04:08;100504.41;;;19.95;71.96
10115;BME280;5097;43.260;27.812;2023-06-04T06:06:53;100521.53;;;19.82;70.54
10115;BME280;5097;43.260;27.812;2023-06-04T06:09:37;100521.44;;;19.72;71.59
10115;BME280;5097;43.260;27.812;2023-06-04T06:12:21;100518.00;;;19.82;70.75
10115;BME280;5097;43.260;27.812;2023-06-04T06:15:06;100533.22;;;20.02;69.64
10115;BME280;5097;43.260;27.812;2023-06-04T06:17:52;100540.34;;;19.71;69.18
10115;BME280;5097;43.260;27.812;2023-06-04T06:20:36;100514.00;;;19.55;69.99
10115;BME280;5097;43.260;27.812;2023-06-04T06:23:20;100531.56;;;19.69;69.10
10115;BME280;5097;43.260;27.812;2023-06-04T06:26:07;100531.34;;;19.72;68.99
10115;BME280;5097;43.260;27.812;2023-06-04T06:29:00;100530.94;;;19.76;66.59
10115;BME280;5097;43.260;27.812;2023-06-04T06:31:45;100523.28;;;19.72;67.05
10115;BME280;5097;43.260;27.812;2023-06-04T06:34:31;100480.88;;;19.56;66.63
10115;BME280;5097;43.260;27.812;2023-06-04T06:37:15;100518.19;;;19.90;64.81
10115;BME280;5097;43.260;27.812;2023-06-04T06:39:59;100508.47;;;20.20;64.90
10115;BME280;5097;43.260;27.812;2023-06-04T06:42:48;100536.09;;;20.41;63.54
10115;BME280;5097;43.260;27.812;2023-06-04T06:45:32;100500.78;;;20.36;62.78
10115;BME280;5097;43.260;27.812;2023-06-04T06:48:19;100529.03;;;20.09;61.76
10115;BME280;5097;43.260;27.812;2023-06-04T06:51:04;100541.34;;;20.43;61.34
10115;BME280;5097;43.260;27.812;2023-06-04T06:53:49;100531.75;;;20.50;61.13
10115;BME280;5097;43.260;27.812;2023-06-04T06:56:33;100530.78;;;21.02;60.81
10115;BME280;5097;43.260;27.812;2023-06-04T06:59:17;100535.13;;;21.03;59.98
10115;BME280;5097;43.260;27.812;2023-06-04T07:02:01;100526.19;;;20.83;60.23
10115;BME280;5097;43.260;27.812;2023-06-04T07:04:45;100538.22;;;20.48;59.89
10115;BME280;5097;43.260;27.812;2023-06-04T07:07:30;100537.28;;;20.99;60.04
10115;BME280;5097;43.260;27.812;2023-06-04T07:10:14;100539.22;;;21.07;58.43
10115;BME280;5097;43.260;27.812;2023-06-04T07:12:58;100539.19;;;20.77;59.01
10115;BME280;5097;43.260;27.812;2023-06-04T07:15:42;100519.44;;;20.88;58.47
10115;BME280;5097;43.260;27.812;2023-06-04T07:18:26;100527.81;;;20.64;58.50
10115;BME280;5097;43.260;27.812;2023-06-04T07:21:11;100515.88;;;20.37;58.25
10115;BME280;5097;43.260;27.812;2023-06-04T07:23:56;100512.97;;;20.60;57.37
10115;BME280;5097;43.260;27.812;2023-06-04T07:26:41;100538.28;;;21.27;57.21
10115;BME280;5097;43.260;27.812;2023-06-04T07:29:25;100521.44;;;21.06;57.07
10115;BME280;5097;43.260;27.812;2023-06-04T07:32:09;100545.31;;;20.99;57.47
10115;BME280;5097;43.260;27.812;2023-06-04T07:34:53;100556.50;;;21.83;56.76
10115;BME280;5097;43.260;27.812;2023-06-04T07:37:38;100524.28;;;21.43;56.91
10115;BME280;5097;43.260;27.812;2023-06-04T07:40:24;100553.44;;;21.68;56.77
10115;BME280;5097;43.260;27.812;2023-06-04T07:43:08;100550.03;;;21.46;57.90
10115;BME280;5097;43.260;27.812;2023-06-04T07:45:52;100552.28;;;21.31;56.18
10115;BME280;5097;43.260;27.812;2023-06-04T07:48:36;100559.94;;;21.65;54.91
10115;BME280;5097;43.260;27.812;2023-06-04T07:51:20;100563.00;;;21.90;54.40
10115;BME280;5097;43.260;27.812;2023-06-04T07:54:05;100566.69;;;22.74;53.19
10115;BME280;5097;43.260;27.812;2023-06-04T07:56:50;100568.06;;;22.03;55.23
10115;BME280;5097;43.260;27.812;2023-06-04T07:59:38;100576.94;;;22.23;55.32
10115;BME280;5097;43.260;27.812;2023-06-04T08:02:22;100556.34;;;22.97;52.37
10115;BME280;5097;43.260;27.812;2023-06-04T08:05:07;100564.88;;;22.27;52.43
10115;BME280;5097;43.260;27.812;2023-06-04T08:07:51;100574.47;;;21.92;53.06
10115;BME280;5097;43.260;27.812;2023-06-04T08:10:35;100577.13;;;22.12;53.37
10115;BME280;5097;43.260;27.812;2023-06-04T08:13:21;100582.94;;;22.54;53.08
10115;BME280;5097;43.260;27.812;2023-06-04T08:16:05;100581.53;;;22.50;51.42
10115;BME280;5097;43.260;27.812;2023-06-04T08:19:03;100543.72;;;22.52;53.01
10115;BME280;5097;43.260;27.812;2023-06-04T08:21:57;100576.13;;;22.60;52.44
10115;BME280;5097;43.260;27.812;2023-06-04T08:25:01;100589.00;;;22.19;53.36
10115;BME280;5097;43.260;27.812;2023-06-04T08:28:05;100583.69;;;21.89;52.45
10115;BME280;5097;43.260;27.812;2023-06-04T08:31:11;100579.44;;;22.34;53.78
10115;BME280;5097;43.260;27.812;2023-06-04T08:34:08;100592.09;;;22.24;52.73
10115;BME280;5097;43.260;27.812;2023-06-04T08:37:02;100591.63;;;22.48;52.65
10115;BME280;5097;43.260;27.812;2023-06-04T08:39:46;100594.50;;;22.65;52.66
10115;BME280;5097;43.260;27.812;2023-06-04T08:42:31;100587.59;;;22.62;51.39
10115;BME280;5097;43.260;27.812;2023-06-04T08:45:17;100592.31;;;23.06;50.33
10115;BME280;5097;43.260;27.812;2023-06-04T08:48:06;100595.34;;;22.93;52.01
10115;BME280;5097;43.260;27.812;2023-06-04T08:50:54;100602.59;;;23.38;50.82
10115;BME280;5097;43.260;27.812;2023-06-04T08:53:41;100594.53;;;22.92;51.58
10115;BME280;5097;43.260;27.812;2023-06-04T08:56:26;100571.66;;;22.79;50.08
10115;BME280;5097;43.260;27.812;2023-06-04T08:59:10;100597.22;;;23.20;51.44
10115;BME280;5097;43.260;27.812;2023-06-04T09:01:56;100584.50;;;22.85;50.00
10115;BME280;5097;43.260;27.812;2023-06-04T09:04:43;100602.66;;;22.83;49.89
10115;BME280;5097;43.260;27.812;2023-06-04T09:07:28;100605.72;;;22.88;49.43
10115;BME280;5097;43.260;27.812;2023-06-04T09:10:18;100608.91;;;23.29;48.92
10115;BME280;5097;43.260;27.812;2023-06-04T09:13:03;100602.81;;;22.53;49.32
10115;BME280;5097;43.260;27.812;2023-06-04T09:15:58;100600.66;;;22.85;48.87
10115;BME280;5097;43.260;27.812;2023-06-04T09:18:44;100602.41;;;22.76;48.54
10115;BME280;5097;43.260;27.812;2023-06-04T09:21:30;100608.22;;;22.34;49.26
10115;BME280;5097;43.260;27.812;2023-06-04T09:24:14;100594.78;;;22.71;49.04
10115;BME280;5097;43.260;27.812;2023-06-04T09:27:09;100589.47;;;22.80;47.21
10115;BME280;5097;43.260;27.812;2023-06-04T09:29:54;100604.16;;;22.95;47.22
10115;BME280;5097;43.260;27.812;2023-06-04T09:32:39;100595.81;;;22.60;47.36
10115;BME280;5097;43.260;27.812;2023-06-04T09:35:23;100566.88;;;23.18;46.41
10115;BME280;5097;43.260;27.812;2023-06-04T09:38:09;100597.09;;;23.12;46.01
10115;BME280;5097;43.260;27.812;2023-06-04T09:40:53;100597.94;;;23.13;46.69
10115;BME280;5097;43.260;27.812;2023-06-04T09:43:37;100596.28;;;23.48;46.17
10115;BME280;5097;43.260;27.812;2023-06-04T09:46:21;100592.38;;;23.42;45.83
10115;BME280;5097;43.260;27.812;2023-06-04T09:49:05;100601.06;;;23.18;45.79
10115;BME280;5097;43.260;27.812;2023-06-04T09:51:50;100506.16;;;22.96;45.95
10115;BME280;5097;43.260;27.812;2023-06-04T09:54:37;100581.63;;;23.68;45.66
10115;BME280;5097;43.260;27.812;2023-06-04T09:57:21;100589.06;;;24.10;44.54
10115;BME280;5097;43.260;27.812;2023-06-04T10:00:06;100604.16;;;23.95;44.90
10115;BME280;5097;43.260;27.812;2023-06-04T10:02:58;100598.06;;;23.93;45.98
10115;BME280;5097;43.260;27.812;2023-06-04T10:05:45;100587.63;;;24.59;44.57
10115;BME280;5097;43.260;27.812;2023-06-04T10:08:30;100594.47;;;24.71;43.55
10115;BME280;5097;43.260;27.812;2023-06-04T10:11:17;100597.34;;;23.91;43.78
10115;BME280;5097;43.260;27.812;2023-06-04T10:14:03;100589.53;;;24.32;43.53
10115;BME280;5097;43.260;27.812;2023-06-04T10:16:51;100564.28;;;24.50;42.01
10115;BME280;5097;43.260;27.812;2023-06-04T10:19:38;100587.97;;;24.90;42.40
10115;BME280;5097;43.260;27.812;2023-06-04T10:22:24;100588.72;;;24.66;42.00
10115;BME280;5097;43.260;27.812;2023-06-04T10:25:08;100574.25;;;24.75;41.81
10115;BME280;5097;43.260;27.812;2023-06-04T10:27:55;100584.72;;;24.79;42.75
10115;BME280;5097;43.260;27.812;2023-06-04T10:30:39;100539.31;;;24.48;42.61
10115;BME280;5097;43.260;27.812;2023-06-04T10:33:23;100573.94;;;24.95;43.98
10115;BME280;5097;43.260;27.812;2023-06-04T10:36:18;100589.78;;;24.13;41.62
10115;BME280;5097;43.260;27.812;2023-06-04T10:39:02;100589.06;;;24.37;41.63
10115;BME280;5097;43.260;27.812;2023-06-04T10:41:57;100577.91;;;25.17;39.15
10115;BME280;5097;43.260;27.812;2023-06-04T10:44:47;100572.72;;;25.73;39.40
10115;BME280;5097;43.260;27.812;2023-06-04T10:47:31;100576.63;;;25.63;39.98
10115;BME280;5097;43.260;27.812;2023-06-04T10:50:19;100585.22;;;25.58;38.33
10115;BME280;5097;43.260;27.812;2023-06-04T10:53:04;100566.38;;;25.07;37.16
10115;BME280;5097;43.260;27.812;2023-06-04T10:55:49;100579.09;;;24.37;38.78
10115;BME280;5097;43.260;27.812;2023-06-04T10:58:33;100579.06;;;24.29;39.08
10115;BME280;5097;43.260;27.812;2023-06-04T11:01:24;100576.47;;;24.97;38.62
10115;BME280;5097;43.260;27.812;2023-06-04T11:04:18;100585.47;;;25.05;37.97
10115;BME280;5097;43.260;27.812;2023-06-04T11:07:04;100589.16;;;24.88;38.49
10115;BME280;5097;43.260;27.812;2023-06-04T11:09:52;100594.69;;;24.52;38.14
10115;BME280;5097;43.260;27.812;2023-06-04T11:12:41;100581.41;;;24.93;37.71
10115;BME280;5097;43.260;27.812;2023-06-04T11:15:26;100593.09;;;24.67;36.72
10115;BME280;5097;43.260;27.812;2023-06-04T11:18:15;100582.13;;;25.20;37.74
10115;BME280;5097;43.260;27.812;2023-06-04T11:21:00;100591.34;;;26.09;36.15
10115;BME280;5097;43.260;27.812;2023-06-04T11:23:44;100590.13;;;25.87;36.40
10115;BME280;5097;43.260;27.812;2023-06-04T11:26:32;100590.50;;;24.92;38.28
10115;BME280;5097;43.260;27.812;2023-06-04T11:29:18;100567.91;;;25.01;38.88
10115;BME280;5097;43.260;27.812;2023-06-04T11:32:02;100594.63;;;24.70;38.74
10115;BME280;5097;43.260;27.812;2023-06-04T11:34:48;100583.69;;;24.45;39.48
10115;BME280;5097;43.260;27.812;2023-06-04T11:37:32;100599.88;;;24.71;39.38
10115;BME280;5097;43.260;27.812;2023-06-04T11:40:17;100596.84;;;24.66;39.71
10115;BME280;5097;43.260;27.812;2023-06-04T11:43:02;100571.22;;;24.87;38.84
10115;BME280;5097;43.260;27.812;2023-06-04T11:45:46;100592.81;;;24.44;39.53
10115;BME280;5097;43.260;27.812;2023-06-04T11:48:30;100606.09;;;24.37;39.50
10115;BME280;5097;43.260;27.812;2023-06-04T11:51:15;100589.97;;;23.93;39.34
10115;BME280;5097;43.260;27.812;2023-06-04T11:53:59;100588.91;;;24.38;39.58
10115;BME280;5097;43.260;27.812;2023-06-04T11:56:44;100592.66;;;24.80;39.29
10115;BME280;5097;43.260;27.812;2023-06-04T11:59:28;100606.53;;;24.59;37.55
10115;BME280;5097;43.260;27.812;2023-06-04T12:02:12;100596.88;;;24.74;37.39
10115;BME280;5097;43.260;27.812;2023-06-04T12:04:56;100594.31;;;25.24;37.38
10115;BME280;5097;43.260;27.812;2023-06-04T12:07:42;100604.84;;;25.93;34.95
10115;BME280;5097;43.260;27.812;2023-06-04T12:10:26;100589.91;;;25.23;35.32
10115;BME280;5097;43.260;27.812;2023-06-04T12:13:11;100547.69;;;25.38;35.48
10115;BME280;5097;43.260;27.812;2023-06-04T12:15:55;100580.69;;;25.75;35.78
10115;BME280;5097;43.260;27.812;2023-06-04T12:18:39;100583.06;;;25.53;35.88
10115;BME280;5097;43.260;27.812;2023-06-04T12:21:24;100580.31;;;25.45;36.11
10115;BME280;5097;43.260;27.812;2023-06-04T12:24:12;100584.22;;;26.00;36.52
10115;BME280;5097;43.260;27.812;2023-06-04T12:27:03;100586.41;;;25.39;36.99
10115;BME280;5097;43.260;27.812;2023-06-04T12:29:55;100595.88;;;25.68;37.66
10115;BME280;5097;43.260;27.812;2023-06-04T12:32:39;100595.66;;;25.28;37.81
10115;BME280;5097;43.260;27.812;2023-06-04T12:35:25;100570.66;;;26.00;37.03
10115;BME280;5097;43.260;27.812;2023-06-04T12:38:08;100574.06;;;25.94;36.09
10115;BME280;5097;43.260;27.812;2023-06-04T12:40:54;100576.78;;;25.36;36.58
10115;BME280;5097;43.260;27.812;2023-06-04T12:43:38;100589.91;;;25.31;36.61
10115;BME280;5097;43.260;27.812;2023-06-04T12:46:23;100591.56;;;26.48;35.73
10115;BME280;5097;43.260;27.812;2023-06-04T12:49:07;100597.84;;;26.88;35.59
10115;BME280;5097;43.260;27.812;2023-06-04T12:51:51;100579.94;;;26.79;34.16
10115;BME280;5097;43.260;27.812;2023-06-04T12:54:34;100587.13;;;26.55;32.84
10115;BME280;5097;43.260;27.812;2023-06-04T12:57:20;100580.22;;;27.47;32.78
10115;BME280;5097;43.260;27.812;2023-06-04T13:00:05;100579.16;;;25.64;35.15
10115;BME280;5097;43.260;27.812;2023-06-04T13:02:50;100588.63;;;25.60;36.07
10115;BME280;5097;43.260;27.812;2023-06-04T13:05:36;100541.75;;;26.09;34.94
10115;BME280;5097;43.260;27.812;2023-06-04T13:08:20;100597.13;;;26.54;36.49
10115;BME280;5097;43.260;27.812;2023-06-04T13:11:04;100584.56;;;25.81;34.31
10115;BME280;5097;43.260;27.812;2023-06-04T13:13:50;100588.28;;;25.80;35.18
10115;BME280;5097;43.260;27.812;2023-06-04T13:16:34;100577.47;;;25.71;34.30
10115;BME280;5097;43.260;27.812;2023-06-04T13:19:19;100588.63;;;25.68;35.45
10115;BME280;5097;43.260;27.812;2023-06-04T13:22:03;100580.16;;;26.13;33.15
10115;BME280;5097;43.260;27.812;2023-06-04T13:24:47;100585.03;;;26.73;33.10
10115;BME280;5097;43.260;27.812;2023-06-04T13:27:31;100585.88;;;26.26;34.16
10115;BME280;5097;43.260;27.812;2023-06-04T13:30:16;100503.94;;;26.95;33.46
10115;BME280;5097;43.260;27.812;2023-06-04T13:33:00;100593.94;;;27.22;32.83
10115;BME280;5097;43.260;27.812;2023-06-04T13:35:45;100570.44;;;25.19;34.60
10115;BME280;5097;43.260;27.812;2023-06-04T13:38:29;100585.91;;;26.18;34.79
10115;BME280;5097;43.260;27.812;2023-06-04T13:41:13;100583.19;;;27.05;33.36
10115;BME280;5097;43.260;27.812;2023-06-04T13:43:57;100584.75;;;27.92;36.36
10115;BME280;5097;43.260;27.812;2023-06-04T13:46:42;100578.06;;;27.65;35.93
10115;BME280;5097;43.260;27.812;2023-06-04T13:49:26;100584.25;;;27.74;32.95
10115;BME280;5097;43.260;27.812;2023-06-04T13:52:10;100581.84;;;27.01;33.43
10115;BME280;5097;43.260;27.812;2023-06-04T13:54:54;100574.66;;;27.17;32.88
10115;BME280;5097;43.260;27.812;2023-06-04T13:57:38;100578.88;;;26.88;32.00
10115;BME280;5097;43.260;27.812;2023-06-04T14:00:22;100578.25;;;28.02;31.60
10115;BME280;5097;43.260;27.812;2023-06-04T14:03:07;100584.19;;;27.59;32.30
10115;BME280;5097;43.260;27.812;2023-06-04T14:05:51;100555.50;;;27.41;31.33
10115;BME280;5097;43.260;27.812;2023-06-04T14:08:35;100563.56;;;26.64;32.22
10115;BME280;5097;43.260;27.812;2023-06-04T14:11:19;100586.84;;;26.89;33.50
10115;BME280;5097;43.260;27.812;2023-06-04T14:14:03;100598.63;;;26.57;33.20
10115;BME280;5097;43.260;27.812;2023-06-04T14:16:48;100578.44;;;26.20;33.52
10115;BME280;5097;43.260;27.812;2023-06-04T14:19:33;100584.81;;;26.43;33.75
10115;BME280;5097;43.260;27.812;2023-06-04T14:22:17;100571.81;;;26.70;31.91
10115;BME280;5097;43.260;27.812;2023-06-04T14:25:02;100577.78;;;27.29;32.51